sensor_id;sensor_type;location;lat;lon;timestamp;P1;durP1;ratioP1;P2;durP2;ratioP2
61570;SDS011;47463;49.884;10.010;2023-07-31T00:00:00;4.8;;;2.6;;
61570;SDS011;47463;49.884;10.010;2023-07-31T00:05:00;5.9;;;2.3;;
61570;SDS011;47463;49.884;10.010;2023-07-31T00:10:00;8.2;;;2.4;;
61570;SDS011;47463;49.884;10.010;2023-07-31T00:15:00;8.2;;;2.4;;
61570;SDS011;47463;49.884;10.010;2023-07-31T00:20:00;6;;;2.4;;
61570;SDS011;47463;49.884;10.010;2023-07-31T00:25:00;5.6;;;2.3;;
61570;SDS011;47463;49.884;10.010;2023-07-31T00:30:00;7.5;;;2.4;;
61570;SDS011;47463;49.884;10.010;2023-07-31T00:35:00;4.8;;;2.2;;
61570;SDS011;47463;49.884;10.010;2023-07-31T00:40:00;5;;;2.3;;
61570;SDS011;47463;49.884;10.010;2023-07-31T00:45:00;5;;;2.3;;
61570;SDS011;47463;49.884;10.010;2023-07-31T00:50:00;8.6;;;2.9;;
61570;SDS011;47463;49.884;10.010;2023-07-31T00:55:00;6.6;;;2.5;;
61570;SDS011;47463;49.884;10.010;2023-07-31T01:00:00;8.7;;;2.6;;
61570;SDS011;47463;49.884;10.010;2023-07-31T01:05:00;6.8;;;2.4;;
61570;SDS011;47463;49.884;10.010;2023-07-31T01:10:01;4.4;;;2.4;;
61570;SDS011;47463;49.884;10.010;2023-07-31T01:15:03;4.4;;;2.4;;
61570;SDS011;47463;49.884;10.010;2023-07-31T01:20:01;7.3;;;2.5;;
61570;SDS011;47463;49.884;10.010;2023-07-31T01:25:02;7.1;;;2.1;;
61570;SDS011;47463;49.884;10.010;2023-07-31T01:30:00;5.1;;;2.4;;
61570;SDS011;47463;49.884;10.010;2023-07-31T01:35:00;8.1;;;2.5;;
61570;SDS011;47463;49.884;10.010;2023-07-31T01:40:00;6.3;;;2.4;;
61570;SDS011;47463;49.884;10.010;2023-07-31T01:45:00;6.3;;;2.4;;
61570;SDS011;47463;49.884;10.010;2023-07-31T01:50:00;7.1;;;2.6;;
61570;SDS011;47463;49.884;10.010;2023-07-31T01:55:00;12.2;;;2.6;;
61570;SDS011;47463;49.884;10.010;2023-07-31T02:00:00;10.6;;;2.5;;
61570;SDS011;47463;49.884;10.010;2023-07-31T02:05:00;7.2;;;2.5;;
61570;SDS011;47463;49.884;10.010;2023-07-31T02:10:00;6;;;2.5;;
61570;SDS011;47463;49.884;10.010;2023-07-31T02:15:00;6;;;2.5;;
61570;SDS011;47463;49.884;10.010;2023-07-31T02:20:00;6;;;2.4;;
61570;SDS011;47463;49.884;10.010;2023-07-31T02:25:00;5.2;;;2.6;;
61570;SDS011;47463;49.884;10.010;2023-07-31T02:30:00;7.3;;;2.8;;
61570;SDS011;47463;49.884;10.010;2023-07-31T02:35:00;9;;;2.7;;
61570;SDS011;47463;49.884;10.010;2023-07-31T02:40:00;8.4;;;2.9;;
61570;SDS011;47463;49.884;10.010;2023-07-31T02:45:00;8.4;;;2.9;;
61570;SDS011;47463;49.884;10.010;2023-07-31T02:50:00;12.2;;;2.9;;
61570;SDS011;47463;49.884;10.010;2023-07-31T02:55:00;8.2;;;3;;
61570;SDS011;47463;49.884;10.010;2023-07-31T03:00:00;6.9;;;2.8;;
61570;SDS011;47463;49.884;10.010;2023-07-31T03:05:00;9.3;;;2.5;;
61570;SDS011;47463;49.884;10.010;2023-07-31T03:10:00;7.8;;;3;;
61570;SDS011;47463;49.884;10.010;2023-07-31T03:15:00;7.8;;;3;;
61570;SDS011;47463;49.884;10.010;2023-07-31T03:20:00;7.6;;;3.1;;
61570;SDS011;47463;49.884;10.010;2023-07-31T03:25:00;7.4;;;2.6;;
61570;SDS011;47463;49.884;10.010;2023-07-31T03:30:00;9.2;;;2.9;;
61570;SDS011;47463;49.884;10.010;2023-07-31T03:35:00;5.3;;;2.7;;
61570;SDS011;47463;49.884;10.010;2023-07-31T03:40:00;9.3;;;2.9;;
61570;SDS011;47463;49.884;10.010;2023-07-31T03:45:00;9.3;;;2.9;;
61570;SDS011;47463;49.884;10.010;2023-07-31T03:50:00;8.9;;;2.9;;
61570;SDS011;47463;49.884;10.010;2023-07-31T03:55:00;10.2;;;3.2;;
61570;SDS011;47463;49.884;10.010;2023-07-31T04:00:00;8.4;;;2.8;;
61570;SDS011;47463;49.884;10.010;2023-07-31T04:05:00;9.3;;;3.6;;
61570;SDS011;47463;49.884;10.010;2023-07-31T04:10:00;7.9;;;3.6;;
61570;SDS011;47463;49.884;10.010;2023-07-31T04:15:00;7.9;;;3.6;;
61570;SDS011;47463;49.884;10.010;2023-07-31T04:20:00;5.7;;;3.2;;
61570;SDS011;47463;49.884;10.010;2023-07-31T04:25:00;6.9;;;2.7;;
61570;SDS011;47463;49.884;10.010;2023-07-31T04:30:00;9.8;;;3.1;;
61570;SDS011;47463;49.884;10.010;2023-07-31T04:35:00;6.4;;;2.8;;
61570;SDS011;47463;49.884;10.010;2023-07-31T04:40:00;5;;;3.1;;
61570;SDS011;47463;49.884;10.010;2023-07-31T04:45:00;5;;;3.1;;
61570;SDS011;47463;49.884;10.010;2023-07-31T04:50:00;8.1;;;3.3;;
61570;SDS011;47463;49.884;10.010;2023-07-31T04:55:00;8.4;;;3.1;;
61570;SDS011;47463;49.884;10.010;2023-07-31T05:00:00;8.4;;;3.3;;
61570;SDS011;47463;49.884;10.010;2023-07-31T05:05:00;9.9;;;3.5;;
61570;SDS011;47463;49.884;10.010;2023-07-31T05:10:00;8.2;;;3.2;;
61570;SDS011;47463;49.884;10.010;2023-07-31T05:15:00;8.2;;;3.2;;
61570;SDS011;47463;49.884;10.010;2023-07-31T05:20:00;6;;;2.7;;
61570;SDS011;47463;49.884;10.010;2023-07-31T05:25:00;6.7;;;3.1;;
61570;SDS011;47463;49.884;10.010;2023-07-31T05:30:00;6.6;;;3.3;;
61570;SDS011;47463;49.884;10.010;2023-07-31T05:35:00;8.5;;;3.3;;
61570;SDS011;47463;49.884;10.010;2023-07-31T05:40:00;8.1;;;3.2;;
61570;SDS011;47463;49.884;10.010;2023-07-31T05:45:00;8.1;;;3.2;;
61570;SDS011;47463;49.884;10.010;2023-07-31T05:50:00;7.4;;;3.1;;
61570;SDS011;47463;49.884;10.010;2023-07-31T05:55:00;13.2;;;3.3;;
61570;SDS011;47463;49.884;10.010;2023-07-31T06:00:00;11.6;;;3.1;;
61570;SDS011;47463;49.884;10.010;2023-07-31T06:05:00;8.8;;;3.4;;
61570;SDS011;47463;49.884;10.010;2023-07-31T06:10:00;7.5;;;3.1;;
61570;SDS011;47463;49.884;10.010;2023-07-31T06:15:00;7.5;;;3.1;;
61570;SDS011;47463;49.884;10.010;2023-07-31T06:20:00;8.7;;;3.4;;
61570;SDS011;47463;49.884;10.010;2023-07-31T06:25:00;11.5;;;3.1;;
61570;SDS011;47463;49.884;10.010;2023-07-31T06:30:00;10.7;;;3.4;;
61570;SDS011;47463;49.884;10.010;2023-07-31T06:35:00;9.6;;;3.4;;
61570;SDS011;47463;49.884;10.010;2023-07-31T06:40:00;8.2;;;3.1;;
61570;SDS011;47463;49.884;10.010;2023-07-31T06:45:00;8.2;;;3.1;;
61570;SDS011;47463;49.884;10.010;2023-07-31T06:50:00;9.4;;;3.1;;
61570;SDS011;47463;49.884;10.010;2023-07-31T06:55:00;9.1;;;2.8;;
61570;SDS011;47463;49.884;10.010;2023-07-31T07:00:00;9;;;3.2;;
61570;SDS011;47463;49.884;10.010;2023-07-31T07:05:00;7.1;;;3;;
61570;SDS011;47463;49.884;10.010;2023-07-31T07:10:00;7.2;;;3.2;;
61570;SDS011;47463;49.884;10.010;2023-07-31T07:15:00;7.2;;;3.2;;
61570;SDS011;47463;49.884;10.010;2023-07-31T07:20:00;7.5;;;3.4;;
61570;SDS011;47463;49.884;10.010;2023-07-31T07:25:00;8.8;;;3.2;;
61570;SDS011;47463;49.884;10.010;2023-07-31T07:30:00;7.2;;;2.9;;
61570;SDS011;47463;49.884;10.010;2023-07-31T07:35:00;9.4;;;3.4;;
61570;SDS011;47463;49.884;10.010;2023-07-31T07:40:00;12.2;;;3.6;;
61570;SDS011;47463;49.884;10.010;2023-07-31T07:45:00;12.2;;;3.6;;
61570;SDS011;47463;49.884;10.010;2023-07-31T07:50:00;10;;;3.6;;
61570;SDS011;47463;49.884;10.010;2023-07-31T07:55:00;12;;;3.7;;
61570;SDS011;47463;49.884;10.010;2023-07-31T08:00:00;5.5;;;3;;
61570;SDS011;47463;49.884;10.010;2023-07-31T08:05:00;7.3;;;3.3;;
61570;SDS011;47463;49.884;10.010;2023-07-31T08:10:00;8.5;;;3.3;;
61570;SDS011;47463;49.884;10.010;2023-07-31T08:15:00;8.5;;;3.3;;
61570;SDS011;47463;49.884;10.010;2023-07-31T08:20:00;9.7;;;2.9;;
61570;SDS011;47463;49.884;10.010;2023-07-31T08:25:00;8.2;;;3.5;;
61570;SDS011;47463;49.884;10.010;2023-07-31T08:30:00;7.6;;;3.2;;
61570;SDS011;47463;49.884;10.010;2023-07-31T08:35:00;8.9;;;3;;
61570;SDS011;47463;49.884;10.010;2023-07-31T08:40:00;11.5;;;3.2;;
61570;SDS011;47463;49.884;10.010;2023-07-31T08:45:00;11.5;;;3.2;;
61570;SDS011;47463;49.884;10.010;2023-07-31T08:50:00;8.6;;;3.4;;
61570;SDS011;47463;49.884;10.010;2023-07-31T08:55:00;7.9;;;3.1;;
61570;SDS011;47463;49.884;10.010;2023-07-31T09:00:00;7.2;;;3.3;;
61570;SDS011;47463;49.884;10.010;2023-07-31T09:05:00;8.4;;;3.4;;
61570;SDS011;47463;49.884;10.010;2023-07-31T09:10:00;7.7;;;2.8;;
61570;SDS011;47463;49.884;10.010;2023-07-31T09:15:00;7.7;;;2.8;;
61570;SDS011;47463;49.884;10.010;2023-07-31T09:20:07;6;;;3.1;;
61570;SDS011;47463;49.884;10.010;2023-07-31T09:25:04;7.9;;;3.2;;
61570;SDS011;47463;49.884;10.010;2023-07-31T09:30:00;7.5;;;3.5;;
61570;SDS011;47463;49.884;10.010;2023-07-31T09:35:00;9.7;;;3.1;;
61570;SDS011;47463;49.884;10.010;2023-07-31T09:40:00;7.6;;;3.8;;
61570;SDS011;47463;49.884;10.010;2023-07-31T09:45:06;7.6;;;3.8;;
61570;SDS011;47463;49.884;10.010;2023-07-31T09:50:00;10.2;;;3.4;;
61570;SDS011;47463;49.884;10.010;2023-07-31T09:55:00;8.8;;;3.2;;
61570;SDS011;47463;49.884;10.010;2023-07-31T10:00:00;9.7;;;3.3;;
61570;SDS011;47463;49.884;10.010;2023-07-31T10:05:01;7;;;3.3;;
61570;SDS011;47463;49.884;10.010;2023-07-31T10:10:00;8.1;;;3.2;;
61570;SDS011;47463;49.884;10.010;2023-07-31T10:15:00;8.1;;;3.2;;
61570;SDS011;47463;49.884;10.010;2023-07-31T10:20:00;7.5;;;3.1;;
61570;SDS011;47463;49.884;10.010;2023-07-31T10:25:00;8;;;3.1;;
61570;SDS011;47463;49.884;10.010;2023-07-31T10:30:00;7.7;;;3.7;;
61570;SDS011;47463;49.884;10.010;2023-07-31T10:35:00;7.5;;;3.2;;
61570;SDS011;47463;49.884;10.010;2023-07-31T10:40:00;8.3;;;3.6;;
61570;SDS011;47463;49.884;10.010;2023-07-31T10:45:00;8.3;;;3.6;;
61570;SDS011;47463;49.884;10.010;2023-07-31T10:50:31;7.4;;;3.6;;
61570;SDS011;47463;49.884;10.010;2023-07-31T10:55:13;9.2;;;3.6;;
61570;SDS011;47463;49.884;10.010;2023-07-31T11:00:12;8.2;;;3.7;;
61570;SDS011;47463;49.884;10.010;2023-07-31T11:05:07;9.4;;;3.4;;
61570;SDS011;47463;49.884;10.010;2023-07-31T11:10:00;7.7;;;3.6;;
61570;SDS011;47463;49.884;10.010;2023-07-31T11:15:00;7.7;;;3.6;;
61570;SDS011;47463;49.884;10.010;2023-07-31T11:20:00;8.3;;;3.5;;
61570;SDS011;47463;49.884;10.010;2023-07-31T11:25:00;7.3;;;3.4;;
61570;SDS011;47463;49.884;10.010;2023-07-31T11:30:00;11.4;;;3.5;;
61570;SDS011;47463;49.884;10.010;2023-07-31T11:35:00;7.2;;;3.3;;
61570;SDS011;47463;49.884;10.010;2023-07-31T11:40:00;7.8;;;3.8;;
61570;SDS011;47463;49.884;10.010;2023-07-31T11:45:01;7.8;;;3.8;;
61570;SDS011;47463;49.884;10.010;2023-07-31T11:50:00;8.2;;;3.5;;
61570;SDS011;47463;49.884;10.010;2023-07-31T11:55:00;7.3;;;3.3;;
61570;SDS011;47463;49.884;10.010;2023-07-31T12:00:00;7.8;;;2.9;;
61570;SDS011;47463;49.884;10.010;2023-07-31T12:05:00;8.3;;;3.6;;
61570;SDS011;47463;49.884;10.010;2023-07-31T12:10:00;8.2;;;3.4;;
61570;SDS011;47463;49.884;10.010;2023-07-31T12:15:00;8.2;;;3.4;;
61570;SDS011;47463;49.884;10.010;2023-07-31T12:20:00;11.5;;;3.9;;
61570;SDS011;47463;49.884;10.010;2023-07-31T12:25:00;8.5;;;3.6;;
61570;SDS011;47463;49.884;10.010;2023-07-31T12:30:00;9.9;;;3.9;;
61570;SDS011;47463;49.884;10.010;2023-07-31T12:35:00;9.4;;;4.3;;
61570;SDS011;47463;49.884;10.010;2023-07-31T12:40:00;8.3;;;3.8;;
61570;SDS011;47463;49.884;10.010;2023-07-31T12:45:00;8.3;;;3.8;;
61570;SDS011;47463;49.884;10.010;2023-07-31T12:50:00;9.2;;;4.2;;
61570;SDS011;47463;49.884;10.010;2023-07-31T12:55:00;6.6;;;3.8;;
61570;SDS011;47463;49.884;10.010;2023-07-31T13:00:00;8.5;;;4;;
61570;SDS011;47463;49.884;10.010;2023-07-31T13:05:00;10;;;3.8;;
61570;SDS011;47463;49.884;10.010;2023-07-31T13:10:00;8.6;;;4.1;;
61570;SDS011;47463;49.884;10.010;2023-07-31T13:15:00;8.6;;;4.1;;
61570;SDS011;47463;49.884;10.010;2023-07-31T13:20:00;10.5;;;4.5;;
61570;SDS011;47463;49.884;10.010;2023-07-31T13:25:00;9.4;;;3.9;;
61570;SDS011;47463;49.884;10.010;2023-07-31T13:30:00;8.9;;;4.3;;
61570;SDS011;47463;49.884;10.010;2023-07-31T13:35:00;10.9;;;4.3;;
61570;SDS011;47463;49.884;10.010;2023-07-31T13:40:00;7.2;;;3.8;;
61570;SDS011;47463;49.884;10.010;2023-07-31T13:45:00;7.2;;;3.8;;
61570;SDS011;47463;49.884;10.010;2023-07-31T13:50:00;11.7;;;4.3;;
61570;SDS011;47463;49.884;10.010;2023-07-31T13:55:00;9.1;;;3.9;;
61570;SDS011;47463;49.884;10.010;2023-07-31T14:00:00;10.2;;;4.3;;
61570;SDS011;47463;49.884;10.010;2023-07-31T14:05:00;8.7;;;4.6;;
61570;SDS011;47463;49.884;10.010;2023-07-31T14:10:00;11.2;;;4.4;;
61570;SDS011;47463;49.884;10.010;2023-07-31T14:20:00;11.2;;;4.4;;
61570;SDS011;47463;49.884;10.010;2023-07-31T14:25:00;8.2;;;3.9;;
61570;SDS011;47463;49.884;10.010;2023-07-31T14:30:00;9.7;;;4.6;;
61570;SDS011;47463;49.884;10.010;2023-07-31T14:35:00;10.6;;;4.1;;
61570;SDS011;47463;49.884;10.010;2023-07-31T14:40:00;7.6;;;4.4;;
61570;SDS011;47463;49.884;10.010;2023-07-31T14:45:00;7.6;;;4.4;;
61570;SDS011;47463;49.884;10.010;2023-07-31T14:50:00;6.6;;;3.9;;
61570;SDS011;47463;49.884;10.010;2023-07-31T14:55:00;8.1;;;3.9;;
61570;SDS011;47463;49.884;10.010;2023-07-31T15:00:00;8.5;;;3.6;;
61570;SDS011;47463;49.884;10.010;2023-07-31T15:05:00;10.5;;;3.8;;
61570;SDS011;47463;49.884;10.010;2023-07-31T15:10:00;8.8;;;3.7;;
61570;SDS011;47463;49.884;10.010;2023-07-31T15:15:00;8.8;;;3.7;;
61570;SDS011;47463;49.884;10.010;2023-07-31T15:20:00;14.1;;;4.5;;
61570;SDS011;47463;49.884;10.010;2023-07-31T15:25:00;11.3;;;4.5;;
61570;SDS011;47463;49.884;10.010;2023-07-31T15:30:00;12.1;;;4.6;;
61570;SDS011;47463;49.884;10.010;2023-07-31T15:35:00;10.8;;;4.9;;
61570;SDS011;47463;49.884;10.010;2023-07-31T15:40:00;9.9;;;4.3;;
61570;SDS011;47463;49.884;10.010;2023-07-31T15:45:00;9.9;;;4.3;;
61570;SDS011;47463;49.884;10.010;2023-07-31T15:50:00;9.9;;;4.2;;
61570;SDS011;47463;49.884;10.010;2023-07-31T15:55:00;9.8;;;3.8;;
61570;SDS011;47463;49.884;10.010;2023-07-31T16:00:00;8.4;;;4.2;;
61570;SDS011;47463;49.884;10.010;2023-07-31T16:05:00;8;;;4;;
61570;SDS011;47463;49.884;10.010;2023-07-31T16:10:00;7.1;;;4.3;;
61570;SDS011;47463;49.884;10.010;2023-07-31T16:15:00;7.1;;;4.3;;
61570;SDS011;47463;49.884;10.010;2023-07-31T16:20:00;9;;;3.9;;
61570;SDS011;47463;49.884;10.010;2023-07-31T16:25:00;10;;;4;;
61570;SDS011;47463;49.884;10.010;2023-07-31T16:30:00;11.9;;;4.4;;
61570;SDS011;47463;49.884;10.010;2023-07-31T16:35:00;11.9;;;4.5;;
61570;SDS011;47463;49.884;10.010;2023-07-31T16:40:00;10.8;;;4.6;;
61570;SDS011;47463;49.884;10.010;2023-07-31T16:45:00;10.8;;;4.6;;
61570;SDS011;47463;49.884;10.010;2023-07-31T16:50:00;9.3;;;4.5;;
61570;SDS011;47463;49.884;10.010;2023-07-31T16:55:00;10;;;4.3;;
61570;SDS011;47463;49.884;10.010;2023-07-31T17:00:00;8.2;;;3.8;;
61570;SDS011;47463;49.884;10.010;2023-07-31T17:05:00;11.4;;;4.3;;
61570;SDS011;47463;49.884;10.010;2023-07-31T17:10:00;8.7;;;4.1;;
61570;SDS011;47463;49.884;10.010;2023-07-31T17:15:00;8.7;;;4.1;;
61570;SDS011;47463;49.884;10.010;2023-07-31T17:20:00;11.9;;;4.4;;
61570;SDS011;47463;49.884;10.010;2023-07-31T17:25:00;7.6;;;3.7;;
61570;SDS011;47463;49.884;10.010;2023-07-31T17:30:00;10.8;;;3.8;;
61570;SDS011;47463;49.884;10.010;2023-07-31T17:35:00;10.8;;;4.4;;
61570;SDS011;47463;49.884;10.010;2023-07-31T17:40:00;9.1;;;4.1;;
61570;SDS011;47463;49.884;10.010;2023-07-31T17:45:00;9.1;;;4.1;;
61570;SDS011;47463;49.884;10.010;2023-07-31T17:50:00;10;;;4.2;;
61570;SDS011;47463;49.884;10.010;2023-07-31T17:55:00;8.8;;;4.3;;
61570;SDS011;47463;49.884;10.010;2023-07-31T18:00:00;9.3;;;4.2;;
61570;SDS011;47463;49.884;10.010;2023-07-31T18:05:00;12.7;;;4.3;;
61570;SDS011;47463;49.884;10.010;2023-07-31T18:10:00;10.9;;;3.9;;
61570;SDS011;47463;49.884;10.010;2023-07-31T18:15:00;10.9;;;3.9;;
61570;SDS011;47463;49.884;10.010;2023-07-31T18:20:00;7.1;;;3.8;;
61570;SDS011;47463;49.884;10.010;2023-07-31T18:25:00;8.8;;;4.2;;
61570;SDS011;47463;49.884;10.010;2023-07-31T18:30:00;7.6;;;3.6;;
61570;SDS011;47463;49.884;10.010;2023-07-31T18:35:00;9.5;;;4.5;;
61570;SDS011;47463;49.884;10.010;2023-07-31T18:40:00;10.3;;;4.3;;
61570;SDS011;47463;49.884;10.010;2023-07-31T18:45:00;10.3;;;4.3;;
61570;SDS011;47463;49.884;10.010;2023-07-31T18:50:00;9;;;4.6;;
61570;SDS011;47463;49.884;10.010;2023-07-31T18:55:00;9.2;;;4.3;;
61570;SDS011;47463;49.884;10.010;2023-07-31T19:00:00;9.9;;;3.9;;
61570;SDS011;47463;49.884;10.010;2023-07-31T19:05:00;13.2;;;4.7;;
61570;SDS011;47463;49.884;10.010;2023-07-31T19:10:00;8.2;;;3.9;;
61570;SDS011;47463;49.884;10.010;2023-07-31T19:15:00;8.2;;;3.9;;
61570;SDS011;47463;49.884;10.010;2023-07-31T19:20:00;12.4;;;4.2;;
61570;SDS011;47463;49.884;10.010;2023-07-31T19:25:00;8.6;;;4;;
61570;SDS011;47463;49.884;10.010;2023-07-31T19:30:00;9.7;;;4.7;;
61570;SDS011;47463;49.884;10.010;2023-07-31T19:35:00;9.7;;;4.6;;
61570;SDS011;47463;49.884;10.010;2023-07-31T19:40:00;9;;;4.7;;
61570;SDS011;47463;49.884;10.010;2023-07-31T19:45:00;9;;;4.7;;
61570;SDS011;47463;49.884;10.010;2023-07-31T19:50:00;12.3;;;4.6;;
61570;SDS011;47463;49.884;10.010;2023-07-31T19:55:00;10.1;;;4.5;;
61570;SDS011;47463;49.884;10.010;2023-07-31T20:00:00;8.1;;;4;;
61570;SDS011;47463;49.884;10.010;2023-07-31T20:05:00;8;;;4.7;;
61570;SDS011;47463;49.884;10.010;2023-07-31T20:10:00;8.6;;;4.4;;
61570;SDS011;47463;49.884;10.010;2023-07-31T20:15:00;8.6;;;4.4;;
61570;SDS011;47463;49.884;10.010;2023-07-31T20:20:00;9.7;;;4.8;;
61570;SDS011;47463;49.884;10.010;2023-07-31T20:25:00;9.8;;;4.2;;
61570;SDS011;47463;49.884;10.010;2023-07-31T20:30:00;10;;;4.5;;
61570;SDS011;47463;49.884;10.010;2023-07-31T20:35:00;7.5;;;4.3;;
61570;SDS011;47463;49.884;10.010;2023-07-31T20:40:04;9.2;;;4.5;;
61570;SDS011;47463;49.884;10.010;2023-07-31T20:45:00;9.2;;;4.5;;
61570;SDS011;47463;49.884;10.010;2023-07-31T20:50:00;12.3;;;4.9;;
61570;SDS011;47463;49.884;10.010;2023-07-31T20:55:00;9.1;;;4.7;;
61570;SDS011;47463;49.884;10.010;2023-07-31T21:00:00;9.8;;;4.7;;
61570;SDS011;47463;49.884;10.010;2023-07-31T21:05:00;8.3;;;4.7;;
61570;SDS011;47463;49.884;10.010;2023-07-31T21:10:00;11;;;4.9;;
61570;SDS011;47463;49.884;10.010;2023-07-31T21:15:00;11;;;4.9;;
61570;SDS011;47463;49.884;10.010;2023-07-31T21:20:00;9;;;4.6;;
61570;SDS011;47463;49.884;10.010;2023-07-31T21:25:00;9.3;;;5.2;;
61570;SDS011;47463;49.884;10.010;2023-07-31T21:30:00;10.7;;;5.4;;
61570;SDS011;47463;49.884;10.010;2023-07-31T21:35:00;8.7;;;4.6;;
61570;SDS011;47463;49.884;10.010;2023-07-31T21:40:00;8.3;;;4.6;;
61570;SDS011;47463;49.884;10.010;2023-07-31T21:45:00;8.3;;;4.6;;
61570;SDS011;47463;49.884;10.010;2023-07-31T21:50:00;8.5;;;4.1;;
61570;SDS011;47463;49.884;10.010;2023-07-31T21:55:00;10.8;;;4.6;;
61570;SDS011;47463;49.884;10.010;2023-07-31T22:00:00;8.7;;;4.3;;
61570;SDS011;47463;49.884;10.010;2023-07-31T22:05:00;8.9;;;4;;
61570;SDS011;47463;49.884;10.010;2023-07-31T22:10:00;9.6;;;4.4;;
61570;SDS011;47463;49.884;10.010;2023-07-31T22:15:00;9.6;;;4.4;;
61570;SDS011;47463;49.884;10.010;2023-07-31T22:20:00;11.1;;;5.2;;
61570;SDS011;47463;49.884;10.010;2023-07-31T22:25:00;9.1;;;4.6;;
61570;SDS011;47463;49.884;10.010;2023-07-31T22:30:00;12;;;5.1;;
61570;SDS011;47463;49.884;10.010;2023-07-31T22:35:00;10.5;;;4.8;;
61570;SDS011;47463;49.884;10.010;2023-07-31T22:40:00;9.6;;;4.8;;
61570;SDS011;47463;49.884;10.010;2023-07-31T22:45:00;9.6;;;4.8;;
61570;SDS011;47463;49.884;10.010;2023-07-31T22:50:00;9.4;;;5;;
61570;SDS011;47463;49.884;10.010;2023-07-31T22:55:00;9.9;;;5.2;;
61570;SDS011;47463;49.884;10.010;2023-07-31T23:00:00;13.2;;;5.5;;
61570;SDS011;47463;49.884;10.010;2023-07-31T23:05:00;11.8;;;5.5;;
61570;SDS011;47463;49.884;10.010;2023-07-31T23:10:00;12.6;;;5.6;;
61570;SDS011;47463;49.884;10.010;2023-07-31T23:15:00;12.6;;;5.6;;
61570;SDS011;47463;49.884;10.010;2023-07-31T23:20:00;11;;;5.3;;
61570;SDS011;47463;49.884;10.010;2023-07-31T23:25:00;12.5;;;6.2;;
61570;SDS011;47463;49.884;10.010;2023-07-31T23:30:00;12.5;;;5.4;;
61570;SDS011;47463;49.884;10.010;2023-07-31T23:35:00;12.1;;;5.8;;
61570;SDS011;47463;49.884;10.010;2023-07-31T23:40:00;14.4;;;6;;
61570;SDS011;47463;49.884;10.010;2023-07-31T23:45:00;14.4;;;6;;
61570;SDS011;47463;49.884;10.010;2023-07-31T23:50:00;12.1;;;6.3;;
61570;SDS011;47463;49.884;10.010;2023-07-31T23:55:00;12.1;;;6.7;;
